Time;durP1;ratioP1;P1;durP2;ratioP2;P2;SDS_P1;SDS_P2;PMS_P1;PMS_P2;Temp;Humidity;BMP_temperature;BMP_pressure;BME280_temperature;BME280_humidity;BME280_pressure;Samples;Min_cycle;Max_cycle;Signal;HPM_P1;HPM_P2
2023/09/24 06:02:31;;;;;;;7.67;4.47;;;;;;;;;;4991050;23;20494;-69
2023/09/24 06:04:58;;;;;;;9.50;4.07;;;;;;;;;;4937815;29;20409;-70
2023/09/24 06:07:27;;;;;;;11.57;3.97;;;;;;;;;;4937728;29;20812;-70
2023/09/24 06:09:53;;;;;;;7.90;4.43;;;;;;;;;;4937777;29;20502;-69
2023/09/24 06:12:20;;;;;;;7.23;3.90;;;;;;;;;;4937503;29;20511;-69
2023/09/24 06:14:46;;;;;;;7.80;3.97;;;;;;;;;;5076482;23;20909;-73
2023/09/24 06:17:12;;;;;;;7.63;3.93;;;;;;;;;;4975869;28;20931;-72
2023/09/24 06:19:38;;;;;;;4.70;3.20;;;;;;;;;;4972958;28;20448;-72
2023/09/24 06:22:04;;;;;;;7.93;4.40;;;;;;;;;;4974497;28;20613;-72
2023/09/24 06:24:30;;;;;;;6.90;3.97;;;;;;;;;;4943063;29;20974;-72
2023/09/24 06:26:56;;;;;;;6.73;3.80;;;;;;;;;;4956058;29;20464;-72
2023/09/24 06:29:22;;;;;;;5.50;4.17;;;;;;;;;;4956389;29;20424;-72
2023/09/24 06:31:50;;;;;;;7.00;4.50;;;;;;;;;;4956123;29;20475;-72
2023/09/24 06:34:16;;;;;;;8.43;3.87;;;;;;;;;;4955695;28;20783;-67
2023/09/24 06:36:42;;;;;;;7.80;4.07;;;;;;;;;;4956001;29;20425;-75
2023/09/24 06:39:09;;;;;;;9.77;4.13;;;;;;;;;;4954017;28;20424;-75
2023/09/24 06:41:35;;;;;;;7.63;4.83;;;;;;;;;;4955674;28;20459;-76
2023/09/24 06:44:01;;;;;;;7.30;3.70;;;;;;;;;;4955107;29;20531;-76
2023/09/24 06:46:27;;;;;;;6.70;4.00;;;;;;;;;;4951673;28;20479;-76
2023/09/24 06:48:53;;;;;;;10.73;4.43;;;;;;;;;;4953132;29;20437;-78
2023/09/24 06:51:20;;;;;;;5.10;3.23;;;;;;;;;;4954912;29;20441;-75
2023/09/24 06:53:46;;;;;;;6.50;3.83;;;;;;;;;;4952302;28;20495;-75
2023/09/24 06:56:12;;;;;;;4.93;3.40;;;;;;;;;;4953902;29;20444;-75
2023/09/24 06:58:38;;;;;;;7.87;3.70;;;;;;;;;;4952379;28;20420;-75
2023/09/24 07:01:04;;;;;;;4.13;3.33;;;;;;;;;;4959743;29;20421;-75
2023/09/24 07:03:31;;;;;;;6.90;3.80;;;;;;;;;;4952843;28;20437;-67
2023/09/24 07:05:57;;;;;;;7.27;3.97;;;;;;;;;;4953340;28;20437;-67
2023/09/24 07:08:23;;;;;;;6.97;3.43;;;;;;;;;;4953168;28;20935;-66
2023/09/24 07:11:12;;;;;;;4.00;3.20;;;;;;;;;;4953586;29;20424;-67
2023/09/24 07:13:38;;;;;;;4.10;2.93;;;;;;;;;;4951246;29;20453;-66
2023/09/24 07:16:05;;;;;;;4.67;2.67;;;;;;;;;;4953376;29;20487;-65
2023/09/24 07:18:31;;;;;;;6.00;3.63;;;;;;;;;;4954813;28;20900;-65
2023/09/24 07:20:57;;;;;;;6.03;3.40;;;;;;;;;;4951524;29;20436;-66
2023/09/24 07:23:23;;;;;;;5.30;3.47;;;;;;;;;;4948517;28;20453;-64
2023/09/24 07:25:49;;;;;;;3.53;2.70;;;;;;;;;;4951836;28;20443;-65
2023/09/24 07:28:15;;;;;;;5.20;3.53;;;;;;;;;;4951862;29;20452;-66
2023/09/24 07:30:41;;;;;;;5.10;3.30;;;;;;;;;;4951983;28;20573;-64
2023/09/24 07:33:08;;;;;;;4.30;3.20;;;;;;;;;;4952742;29;20823;-66
2023/09/24 07:35:35;;;;;;;5.30;3.10;;;;;;;;;;4952892;28;20557;-65
2023/09/24 07:38:01;;;;;;;5.10;3.03;;;;;;;;;;4951796;28;20463;-65
2023/09/24 07:40:26;;;;;;;5.07;3.00;;;;;;;;;;4950968;29;20775;-66
2023/09/24 07:42:52;;;;;;;9.67;3.23;;;;;;;;;;4951965;29;20950;-64
2023/09/24 07:45:18;;;;;;;7.53;3.87;;;;;;;;;;4952565;29;20771;-64
2023/09/24 07:47:44;;;;;;;4.20;3.33;;;;;;;;;;4952063;29;21062;-66
2023/09/24 07:50:11;;;;;;;6.00;3.00;;;;;;;;;;4952473;29;20476;-66
2023/09/24 07:52:36;;;;;;;7.90;3.50;;;;;;;;;;4948129;29;20888;-66
2023/09/24 07:55:03;;;;;;;7.00;2.97;;;;;;;;;;4950775;28;20515;-65
2023/09/24 07:57:29;;;;;;;6.90;3.30;;;;;;;;;;4953581;28;20463;-73
2023/09/24 07:59:55;;;;;;;5.53;3.37;;;;;;;;;;4948054;28;20508;-66
2023/09/24 08:02:21;;;;;;;6.80;3.33;;;;;;;;;;4964079;29;20445;-73
2023/09/24 08:04:47;;;;;;;6.10;3.37;;;;;;;;;;4971334;29;20580;-72
2023/09/24 08:07:13;;;;;;;9.10;3.73;;;;;;;;;;4954896;29;20508;-72
2023/09/24 08:09:40;;;;;;;5.13;3.47;;;;;;;;;;4943930;29;20568;-72
2023/09/24 08:12:06;;;;;;;5.90;3.67;;;;;;;;;;4956229;28;20891;-72
2023/09/24 08:14:33;;;;;;;4.23;2.90;;;;;;;;;;4952741;29;20456;-73
2023/09/24 08:16:59;;;;;;;6.77;3.93;;;;;;;;;;4953174;28;20496;-72
2023/09/24 08:19:30;;;;;;;7.60;3.00;;;;;;;;;;4944537;29;20433;-72
2023/09/24 08:21:56;;;;;;;6.57;2.70;;;;;;;;;;4935036;29;20410;-71
2023/09/24 08:24:22;;;;;;;4.20;2.67;;;;;;;;;;4933580;29;20532;-71
2023/09/24 08:26:48;;;;;;;9.20;2.80;;;;;;;;;;4934032;29;20929;-72
2023/09/24 08:29:14;;;;;;;10.73;2.90;;;;;;;;;;4933347;29;20613;-71
2023/09/24 08:31:40;;;;;;;5.77;3.23;;;;;;;;;;4933792;29;20496;-72
2023/09/24 08:34:06;;;;;;;4.23;2.60;;;;;;;;;;4932644;29;20450;-72
2023/09/24 08:36:33;;;;;;;5.40;3.20;;;;;;;;;;4933138;29;20417;-72
2023/09/24 08:39:01;;;;;;;7.27;2.30;;;;;;;;;;4932732;29;20960;-73
2023/09/24 08:41:27;;;;;;;3.80;2.60;;;;;;;;;;4932652;29;20897;-73
2023/09/24 08:43:55;;;;;;;5.33;2.77;;;;;;;;;;4932689;29;20455;-73
2023/09/24 08:46:22;;;;;;;4.40;2.60;;;;;;;;;;4931352;29;20528;-73
2023/09/24 08:48:48;;;;;;;10.23;3.67;;;;;;;;;;4932060;29;20782;-74
2023/09/24 08:51:14;;;;;;;6.63;2.93;;;;;;;;;;4932915;29;20429;-73
2023/09/24 08:53:40;;;;;;;5.50;2.77;;;;;;;;;;4931823;29;20430;-73
2023/09/24 08:56:07;;;;;;;7.13;2.63;;;;;;;;;;4930508;29;20497;-73
2023/09/24 08:58:33;;;;;;;4.67;2.80;;;;;;;;;;4933007;29;20576;-73
2023/09/24 09:01:02;;;;;;;5.63;3.60;;;;;;;;;;4934338;29;20450;-72
2023/09/24 09:03:29;;;;;;;7.60;2.43;;;;;;;;;;4948030;28;20757;-73
2023/09/24 09:05:54;;;;;;;5.10;3.00;;;;;;;;;;4953077;29;20419;-73
2023/09/24 09:08:20;;;;;;;4.07;2.43;;;;;;;;;;4952255;29;20413;-73
2023/09/24 09:10:50;;;;;;;9.77;3.87;;;;;;;;;;4952759;29;20453;-73
2023/09/24 09:13:18;;;;;;;5.77;2.80;;;;;;;;;;4952987;28;20834;-74
2023/09/24 09:15:44;;;;;;;4.47;2.97;;;;;;;;;;4951020;28;20741;-73
2023/09/24 09:18:23;;;;;;;7.17;4.17;;;;;;;;;;4952155;29;20420;-71
2023/09/24 09:20:50;;;;;;;14.10;3.23;;;;;;;;;;4951675;29;20948;-71
2023/09/24 09:23:28;;;;;;;5.50;2.77;;;;;;;;;;4951487;28;20955;-74
2023/09/24 09:25:54;;;;;;;5.27;2.63;;;;;;;;;;4951675;29;20495;-71
2023/09/24 09:28:21;;;;;;;8.40;2.90;;;;;;;;;;4950066;29;20437;-72
2023/09/24 09:30:59;;;;;;;6.50;2.70;;;;;;;;;;4951314;29;20444;-71
2023/09/24 09:33:28;;;;;;;5.47;2.57;;;;;;;;;;4951707;28;20815;-71
2023/09/24 09:35:54;;;;;;;3.43;2.23;;;;;;;;;;4951895;29;20437;-71
2023/09/24 09:38:21;;;;;;;3.37;2.40;;;;;;;;;;4950038;29;20931;-71
2023/09/24 09:40:48;;;;;;;4.60;2.23;;;;;;;;;;4933059;29;20422;-71
2023/09/24 09:43:14;;;;;;;8.43;2.07;;;;;;;;;;4932395;29;20434;-73
2023/09/24 09:45:43;;;;;;;6.27;2.53;;;;;;;;;;4932609;29;20935;-72
2023/09/24 09:48:10;;;;;;;5.13;2.87;;;;;;;;;;4932505;29;20502;-72
2023/09/24 09:50:39;;;;;;;7.70;2.53;;;;;;;;;;4946722;29;20436;-72
2023/09/24 09:53:09;;;;;;;4.20;2.23;;;;;;;;;;4950237;28;20575;-71
2023/09/24 09:55:37;;;;;;;6.20;2.40;;;;;;;;;;4951742;29;20417;-71
2023/09/24 09:58:04;;;;;;;5.93;2.17;;;;;;;;;;4950532;29;20481;-71
2023/09/24 10:00:30;;;;;;;5.17;2.30;;;;;;;;;;4951750;29;20522;-71
2023/09/24 10:02:56;;;;;;;8.00;2.97;;;;;;;;;;4950151;28;20433;-71
2023/09/24 10:05:22;;;;;;;3.70;2.40;;;;;;;;;;4954221;29;20416;-71
2023/09/24 10:07:48;;;;;;;4.30;2.10;;;;;;;;;;4951628;29;20460;-71
2023/09/24 10:10:40;;;;;;;7.40;2.40;;;;;;;;;;4951703;29;20856;-72
2023/09/24 10:13:06;;;;;;;4.43;2.60;;;;;;;;;;4952243;28;20409;-72
2023/09/24 10:15:32;;;;;;;7.90;4.40;;;;;;;;;;4955001;28;20436;-72
2023/09/24 10:18:19;;;;;;;6.27;2.83;;;;;;;;;;4954975;29;20500;-71
2023/09/24 10:20:53;;;;;;;6.30;2.13;;;;;;;;;;4947378;29;20468;-72
2023/09/24 10:23:31;;;;;;;4.90;2.30;;;;;;;;;;4955135;28;20792;-73
2023/09/24 10:26:06;;;;;;;6.10;2.30;;;;;;;;;;4953329;29;20444;-72
2023/09/24 10:28:48;;;;;;;6.77;2.53;;;;;;;;;;4936506;29;20406;-71
2023/09/24 10:31:16;;;;;;;8.83;2.63;;;;;;;;;;4936135;29;20794;-71
2023/09/24 10:33:51;;;;;;;6.30;2.53;;;;;;;;;;4937639;29;20440;-71
2023/09/24 10:36:23;;;;;;;7.40;2.50;;;;;;;;;;4938643;29;20417;-71
2023/09/24 10:39:05;;;;;;;4.37;2.17;;;;;;;;;;4935309;29;20418;-72
2023/09/24 10:41:35;;;;;;;4.83;2.70;;;;;;;;;;4936413;29;20441;-72
2023/09/24 10:44:20;;;;;;;3.40;2.20;;;;;;;;;;4935633;29;20457;-72
2023/09/24 10:46:47;;;;;;;3.10;2.20;;;;;;;;;;4936117;29;20468;-72
2023/09/24 10:49:24;;;;;;;4.57;2.50;;;;;;;;;;4936687;29;20430;-72
2023/09/24 10:51:50;;;;;;;5.40;2.10;;;;;;;;;;4936248;29;20441;-72
2023/09/24 10:54:17;;;;;;;3.67;2.40;;;;;;;;;;4935471;29;20450;-72
2023/09/24 10:56:49;;;;;;;6.53;2.47;;;;;;;;;;4938333;29;20787;-71
2023/09/24 10:59:15;;;;;;;11.03;3.00;;;;;;;;;;4942727;29;20488;-71
2023/09/24 11:01:41;;;;;;;5.37;2.67;;;;;;;;;;4940843;29;20426;-72
2023/09/24 11:04:09;;;;;;;6.10;2.10;;;;;;;;;;4936313;29;20440;-73
2023/09/24 11:06:34;;;;;;;5.37;2.27;;;;;;;;;;4936244;29;20472;-73
2023/09/24 11:09:17;;;;;;;4.20;2.77;;;;;;;;;;4934760;29;20422;-73
2023/09/24 11:11:44;;;;;;;4.10;2.40;;;;;;;;;;4935982;29;20883;-73
2023/09/24 11:14:13;;;;;;;4.10;2.30;;;;;;;;;;4935463;29;20882;-72
2023/09/24 11:16:39;;;;;;;4.33;2.67;;;;;;;;;;4936007;29;20526;-72
2023/09/24 11:19:06;;;;;;;6.40;2.50;;;;;;;;;;4946940;29;20905;-72
2023/09/24 11:21:32;;;;;;;4.07;2.30;;;;;;;;;;4943382;29;20433;-73
2023/09/24 11:23:58;;;;;;;4.10;2.40;;;;;;;;;;4935486;29;20513;-72
2023/09/24 11:26:28;;;;;;;4.43;2.40;;;;;;;;;;4935004;29;20501;-73
2023/09/24 11:28:56;;;;;;;4.83;1.97;;;;;;;;;;4935792;29;20409;-72
2023/09/24 11:31:26;;;;;;;4.70;2.27;;;;;;;;;;4935788;29;20771;-72
2023/09/24 11:33:55;;;;;;;4.07;1.83;;;;;;;;;;4935298;29;20936;-72
2023/09/24 11:36:21;;;;;;;4.60;2.17;;;;;;;;;;4934453;29;20425;-72
2023/09/24 11:38:47;;;;;;;5.60;2.70;;;;;;;;;;4935453;29;20421;-72
2023/09/24 11:41:14;;;;;;;5.60;2.07;;;;;;;;;;4935403;29;20413;-72
2023/09/24 11:43:44;;;;;;;6.53;2.60;;;;;;;;;;4935182;29;20433;-73
2023/09/24 11:46:21;;;;;;;5.20;2.20;;;;;;;;;;4935601;29;20453;-74
2023/09/24 11:48:47;;;;;;;5.53;2.50;;;;;;;;;;4935409;29;20413;-73
2023/09/24 11:51:15;;;;;;;11.63;2.70;;;;;;;;;;4935091;29;20521;-73
2023/09/24 11:53:41;;;;;;;3.10;1.53;;;;;;;;;;4935224;29;20492;-73
2023/09/24 11:56:07;;;;;;;3.03;1.90;;;;;;;;;;4935358;29;20819;-72
2023/09/24 11:58:33;;;;;;;6.10;2.50;;;;;;;;;;4935116;29;20427;-72
2023/09/24 12:01:01;;;;;;;5.10;2.00;;;;;;;;;;4935227;29;20497;-72
2023/09/24 12:03:27;;;;;;;3.73;2.13;;;;;;;;;;4933665;29;20850;-75
2023/09/24 12:05:53;;;;;;;4.90;2.27;;;;;;;;;;4939507;29;20505;-72
2023/09/24 12:08:19;;;;;;;3.73;2.10;;;;;;;;;;4936374;29;20665;-72
2023/09/24 12:10:52;;;;;;;2.83;1.97;;;;;;;;;;4935623;29;20440;-72
2023/09/24 12:13:18;;;;;;;6.83;2.37;;;;;;;;;;4961050;23;20429;-72
2023/09/24 12:15:45;;;;;;;5.47;2.40;;;;;;;;;;4965181;28;20439;-72
2023/09/24 12:18:11;;;;;;;7.57;2.67;;;;;;;;;;4956041;29;20753;-72
2023/09/24 12:20:38;;;;;;;3.97;2.30;;;;;;;;;;4971233;29;20405;-69
2023/09/24 12:23:07;;;;;;;5.30;2.47;;;;;;;;;;4971931;29;20449;-70
2023/09/24 12:25:36;;;;;;;3.20;2.03;;;;;;;;;;4935944;29;20409;-69
2023/09/24 12:28:03;;;;;;;3.90;2.30;;;;;;;;;;4935288;29;20863;-73
2023/09/24 12:30:29;;;;;;;4.47;2.20;;;;;;;;;;4935360;29;20414;-70
2023/09/24 12:32:55;;;;;;;4.40;2.07;;;;;;;;;;4937258;29;20445;-71
2023/09/24 12:35:21;;;;;;;5.20;2.13;;;;;;;;;;4953895;29;20491;-71
2023/09/24 12:37:47;;;;;;;4.30;2.37;;;;;;;;;;4953810;28;20428;-71
2023/09/24 12:40:13;;;;;;;3.47;1.90;;;;;;;;;;4953888;29;20417;-71
2023/09/24 12:42:40;;;;;;;3.53;2.10;;;;;;;;;;4953867;29;20428;-70
2023/09/24 12:45:07;;;;;;;3.57;2.23;;;;;;;;;;4953653;29;20952;-70
2023/09/24 12:47:33;;;;;;;5.97;2.37;;;;;;;;;;4953815;29;20545;-71
2023/09/24 12:50:06;;;;;;;3.33;1.73;;;;;;;;;;4953762;29;20424;-72
2023/09/24 12:52:41;;;;;;;3.40;2.20;;;;;;;;;;4953571;29;20417;-71
2023/09/24 12:55:08;;;;;;;3.40;1.50;;;;;;;;;;4953277;28;21052;-71
2023/09/24 12:57:34;;;;;;;3.77;1.87;;;;;;;;;;4953913;28;20415;-70
2023/09/24 13:00:01;;;;;;;4.70;2.07;;;;;;;;;;4953924;29;20449;-71
2023/09/24 13:02:27;;;;;;;4.10;1.70;;;;;;;;;;4953549;28;20440;-71
2023/09/24 13:04:53;;;;;;;8.27;2.53;;;;;;;;;;4953225;29;20432;-71
2023/09/24 13:07:19;;;;;;;5.90;2.50;;;;;;;;;;4953521;29;20527;-71
2023/09/24 13:09:45;;;;;;;3.30;2.10;;;;;;;;;;4937222;29;20433;-72
2023/09/24 13:12:12;;;;;;;4.40;2.00;;;;;;;;;;4934811;29;20432;-71
2023/09/24 13:14:38;;;;;;;5.33;2.63;;;;;;;;;;4934203;29;20476;-71
2023/09/24 13:17:04;;;;;;;6.83;2.07;;;;;;;;;;4934495;29;20456;-71
2023/09/24 13:19:31;;;;;;;2.67;2.23;;;;;;;;;;4943640;29;20563;-71
2023/09/24 13:21:57;;;;;;;4.80;2.47;;;;;;;;;;4953783;29;20463;-72
2023/09/24 13:24:23;;;;;;;3.53;2.10;;;;;;;;;;4953302;29;20515;-73
2023/09/24 13:26:49;;;;;;;5.47;2.43;;;;;;;;;;4953583;29;21018;-73
2023/09/24 13:29:15;;;;;;;7.33;2.50;;;;;;;;;;4953672;29;20424;-74
2023/09/24 13:31:41;;;;;;;6.00;2.53;;;;;;;;;;4954077;29;20445;-72
2023/09/24 13:34:07;;;;;;;5.07;2.80;;;;;;;;;;4953127;29;20440;-72
2023/09/24 13:36:34;;;;;;;4.73;2.30;;;;;;;;;;4953458;29;20412;-72
2023/09/24 13:39:00;;;;;;;4.50;2.37;;;;;;;;;;4953258;29;20476;-70
2023/09/24 13:41:29;;;;;;;5.37;2.63;;;;;;;;;;4953513;29;20500;-70
2023/09/24 13:43:55;;;;;;;3.83;2.53;;;;;;;;;;4953093;29;20433;-70
2023/09/24 13:46:22;;;;;;;3.87;1.80;;;;;;;;;;4952997;29;20419;-71
2023/09/24 13:48:49;;;;;;;3.87;2.30;;;;;;;;;;4953183;28;20452;-70
2023/09/24 13:51:16;;;;;;;6.03;2.10;;;;;;;;;;4956748;28;20460;-71
2023/09/24 13:53:42;;;;;;;3.90;2.20;;;;;;;;;;4956810;28;20436;-72
2023/09/24 13:56:15;;;;;;;6.70;2.10;;;;;;;;;;4957022;28;20412;-71
2023/09/24 13:58:41;;;;;;;4.77;2.27;;;;;;;;;;4956507;28;20482;-71
2023/09/24 14:01:07;;;;;;;4.10;2.00;;;;;;;;;;4956671;29;20421;-70
2023/09/24 14:03:34;;;;;;;2.40;1.73;;;;;;;;;;4956785;28;20507;-71
2023/09/24 14:06:00;;;;;;;4.20;2.10;;;;;;;;;;4956655;28;20814;-70
2023/09/24 14:14:04;;;;;;;7.53;2.40;;;;;;;;;;4955916;29;20878;-70
2023/09/24 14:16:31;;;;;;;3.17;2.27;;;;;;;;;;4956648;29;20416;-70
2023/09/24 14:18:57;;;;;;;4.00;1.97;;;;;;;;;;4956670;28;20439;-71
2023/09/24 14:21:23;;;;;;;6.50;3.10;;;;;;;;;;4956814;29;20857;-72
2023/09/24 14:23:49;;;;;;;2.87;2.00;;;;;;;;;;4956008;29;20808;-71
2023/09/24 14:26:15;;;;;;;5.70;2.47;;;;;;;;;;4956376;29;20436;-71
2023/09/24 14:28:41;;;;;;;3.13;1.80;;;;;;;;;;4956732;29;20904;-71
2023/09/24 14:31:07;;;;;;;4.20;2.27;;;;;;;;;;4968497;29;20919;-71
2023/09/24 14:33:35;;;;;;;2.80;1.87;;;;;;;;;;4967335;29;20491;-70
2023/09/24 14:36:01;;;;;;;4.53;2.33;;;;;;;;;;4964097;28;20476;-71
2023/09/24 14:38:29;;;;;;;5.20;2.47;;;;;;;;;;4969818;29;20401;-71
2023/09/24 14:40:55;;;;;;;3.87;2.27;;;;;;;;;;4962684;29;20469;-72
2023/09/24 14:43:21;;;;;;;5.97;2.50;;;;;;;;;;4963406;28;20417;-71
2023/09/24 14:45:56;;;;;;;5.47;2.40;;;;;;;;;;4963859;29;20913;-70
2023/09/24 14:48:22;;;;;;;8.23;2.03;;;;;;;;;;4961787;28;20561;-70
2023/09/24 14:50:48;;;;;;;4.70;2.47;;;;;;;;;;4956374;29;20420;-71
2023/09/24 14:53:14;;;;;;;4.83;2.10;;;;;;;;;;4955828;29;20912;-71
2023/09/24 14:55:40;;;;;;;3.80;2.07;;;;;;;;;;4955794;29;20908;-71
2023/09/24 14:58:06;;;;;;;3.50;2.30;;;;;;;;;;4954086;29;20413;-71
2023/09/24 15:00:32;;;;;;;8.13;2.20;;;;;;;;;;4936761;29;20507;-71
2023/09/24 15:02:59;;;;;;;7.27;2.37;;;;;;;;;;4936959;29;20414;-71
2023/09/24 15:05:25;;;;;;;4.33;2.47;;;;;;;;;;4936863;29;20448;-71
2023/09/24 15:07:51;;;;;;;3.60;1.73;;;;;;;;;;4936884;29;20543;-72
2023/09/24 15:10:17;;;;;;;4.50;2.20;;;;;;;;;;4950191;29;20428;-72
2023/09/24 15:12:43;;;;;;;4.77;2.10;;;;;;;;;;4955767;29;20409;-71
2023/09/24 15:15:09;;;;;;;4.27;2.17;;;;;;;;;;4955219;29;20456;-71
2023/09/24 15:17:35;;;;;;;3.60;2.03;;;;;;;;;;4955907;29;20423;-70
2023/09/24 15:20:01;;;;;;;5.37;2.10;;;;;;;;;;4955310;29;20417;-70
2023/09/24 15:22:27;;;;;;;4.50;2.30;;;;;;;;;;4955405;29;20733;-70
2023/09/24 15:24:53;;;;;;;6.00;2.10;;;;;;;;;;4953650;29;20440;-70
2023/09/24 15:27:19;;;;;;;3.73;2.10;;;;;;;;;;4943669;29;20464;-71
2023/09/24 15:29:45;;;;;;;5.13;1.90;;;;;;;;;;4955275;29;20885;-70
2023/09/24 15:32:11;;;;;;;4.27;2.20;;;;;;;;;;4955393;29;20404;-70
2023/09/24 15:34:36;;;;;;;4.73;2.30;;;;;;;;;;4952549;29;20440;-70
2023/09/24 15:37:02;;;;;;;3.47;1.83;;;;;;;;;;4936844;29;20433;-71
2023/09/24 15:39:30;;;;;;;5.83;2.57;;;;;;;;;;4936207;29;20414;-71
2023/09/24 15:41:56;;;;;;;4.60;2.60;;;;;;;;;;4936081;29;20445;-71
2023/09/24 15:44:21;;;;;;;6.87;2.23;;;;;;;;;;4935921;29;20476;-71
2023/09/24 15:46:47;;;;;;;4.53;2.70;;;;;;;;;;4936333;29;20476;-71
2023/09/24 15:49:13;;;;;;;5.23;2.10;;;;;;;;;;4936125;29;20422;-70
2023/09/24 15:51:40;;;;;;;2.73;1.73;;;;;;;;;;4935312;29;20465;-72
2023/09/24 15:54:06;;;;;;;3.20;2.00;;;;;;;;;;4935794;29;20441;-72
2023/09/24 15:56:32;;;;;;;3.47;2.20;;;;;;;;;;4935981;29;20429;-71
2023/09/24 15:58:58;;;;;;;4.40;2.17;;;;;;;;;;4936123;29;20487;-71
2023/09/24 16:01:24;;;;;;;4.30;2.23;;;;;;;;;;4943692;29;20441;-72
2023/09/24 16:03:49;;;;;;;6.63;2.37;;;;;;;;;;4935387;29;20481;-72
2023/09/24 16:06:15;;;;;;;4.20;2.53;;;;;;;;;;4935731;29;20424;-72
2023/09/24 16:08:41;;;;;;;4.90;2.47;;;;;;;;;;4935779;29;20500;-72
2023/09/24 16:11:07;;;;;;;4.43;2.33;;;;;;;;;;4941291;29;20815;-71
2023/09/24 16:13:33;;;;;;;3.13;2.20;;;;;;;;;;4953952;28;20452;-71
2023/09/24 16:15:59;;;;;;;8.33;2.40;;;;;;;;;;4954794;29;20424;-71
2023/09/24 16:18:25;;;;;;;5.43;3.20;;;;;;;;;;4954812;29;20780;-71
2023/09/24 16:21:00;;;;;;;7.60;3.37;;;;;;;;;;4954544;29;20401;-72
2023/09/24 16:23:26;;;;;;;5.00;2.40;;;;;;;;;;4943786;29;20496;-71
2023/09/24 16:25:52;;;;;;;6.03;2.80;;;;;;;;;;4935387;29;20830;-72
2023/09/24 16:28:18;;;;;;;4.27;2.47;;;;;;;;;;4948508;28;20473;-70
2023/09/24 16:30:44;;;;;;;4.10;2.50;;;;;;;;;;4956681;29;20424;-70
2023/09/24 16:33:10;;;;;;;4.40;2.50;;;;;;;;;;4962668;29;20850;-70
2023/09/24 16:35:42;;;;;;;5.80;2.80;;;;;;;;;;4953734;29;20945;-71
2023/09/24 16:38:08;;;;;;;8.57;3.67;;;;;;;;;;4954073;29;20971;-71
2023/09/24 16:40:34;;;;;;;4.23;2.60;;;;;;;;;;4948330;29;20425;-71
2023/09/24 16:43:00;;;;;;;5.40;2.17;;;;;;;;;;4934883;29;20509;-71
2023/09/24 16:45:26;;;;;;;5.60;2.90;;;;;;;;;;4934475;29;20807;-70
2023/09/24 16:47:53;;;;;;;6.20;3.10;;;;;;;;;;4949151;29;20499;-70
2023/09/24 16:50:20;;;;;;;5.57;3.00;;;;;;;;;;4954354;28;20421;-70
2023/09/24 16:52:46;;;;;;;5.30;3.00;;;;;;;;;;4953935;28;20417;-70
2023/09/24 16:55:12;;;;;;;5.70;2.70;;;;;;;;;;4953956;29;20767;-70
2023/09/24 16:57:38;;;;;;;7.33;3.47;;;;;;;;;;4953995;29;20420;-70
2023/09/24 17:00:04;;;;;;;5.23;2.57;;;;;;;;;;4939792;28;20965;-70
2023/09/24 17:02:30;;;;;;;3.70;2.47;;;;;;;;;;4934662;29;20512;-71
2023/09/24 17:04:58;;;;;;;4.93;2.67;;;;;;;;;;4935072;29;20437;-70
2023/09/24 17:07:23;;;;;;;5.63;2.83;;;;;;;;;;4934726;29;20473;-71
2023/09/24 17:09:49;;;;;;;4.80;2.60;;;;;;;;;;4934742;29;20414;-70
2023/09/24 17:12:15;;;;;;;6.47;3.30;;;;;;;;;;4950323;29;20456;-71
2023/09/24 17:14:41;;;;;;;7.80;3.03;;;;;;;;;;4953411;29;20525;-70
2023/09/24 17:17:07;;;;;;;6.63;3.20;;;;;;;;;;4953675;29;20421;-70
2023/09/24 17:19:33;;;;;;;8.00;2.77;;;;;;;;;;4953224;29;20467;-70
2023/09/24 17:22:00;;;;;;;3.90;2.53;;;;;;;;;;4953609;29;20416;-70
2023/09/24 17:24:28;;;;;;;6.13;2.90;;;;;;;;;;4951149;28;20445;-71
2023/09/24 17:26:55;;;;;;;3.50;2.07;;;;;;;;;;4948815;28;20468;-71
2023/09/24 17:29:21;;;;;;;4.97;2.87;;;;;;;;;;4953493;28;20447;-71
2023/09/24 17:31:47;;;;;;;4.57;2.73;;;;;;;;;;4953409;29;20421;-71
2023/09/24 17:34:15;;;;;;;5.07;3.13;;;;;;;;;;4943547;29;20455;-72
2023/09/24 17:36:42;;;;;;;5.17;2.80;;;;;;;;;;4952079;29;20460;-71
2023/09/24 17:39:08;;;;;;;6.77;2.90;;;;;;;;;;4950996;28;20445;-70
2023/09/24 17:41:33;;;;;;;5.00;2.60;;;;;;;;;;4951505;29;20433;-70
2023/09/24 17:44:00;;;;;;;3.47;2.40;;;;;;;;;;4952629;29;20459;-71
2023/09/24 17:46:25;;;;;;;4.60;2.50;;;;;;;;;;4948404;28;20796;-71
2023/09/24 17:48:51;;;;;;;5.70;2.63;;;;;;;;;;4934800;29;20405;-70
2023/09/24 17:51:17;;;;;;;4.30;2.43;;;;;;;;;;4944552;29;20451;-70
2023/09/24 17:53:43;;;;;;;10.57;3.90;;;;;;;;;;4953694;28;20432;-71
2023/09/24 17:56:10;;;;;;;7.77;3.80;;;;;;;;;;4952335;28;20943;-69
2023/09/24 17:58:36;;;;;;;5.23;2.93;;;;;;;;;;4951685;28;20488;-70
2023/09/24 18:01:08;;;;;;;5.63;2.97;;;;;;;;;;4946196;28;20468;-69
2023/09/24 18:03:34;;;;;;;6.07;3.30;;;;;;;;;;4952656;28;20456;-69
2023/09/24 18:06:00;;;;;;;5.33;3.07;;;;;;;;;;4952368;28;20436;-70
2023/09/24 18:08:28;;;;;;;9.13;3.00;;;;;;;;;;4951351;28;20468;-70
2023/09/24 18:10:54;;;;;;;7.40;3.70;;;;;;;;;;4952422;28;20786;-72
2023/09/24 18:13:20;;;;;;;6.43;2.50;;;;;;;;;;4952805;29;20417;-71
2023/09/24 18:15:52;;;;;;;4.40;2.40;;;;;;;;;;5013781;23;20498;-74
2023/09/24 18:18:21;;;;;;;5.93;2.60;;;;;;;;;;4992250;28;20420;-72
2023/09/24 18:20:47;;;;;;;4.33;2.37;;;;;;;;;;4985835;28;20479;-71
2023/09/24 18:23:13;;;;;;;5.40;3.03;;;;;;;;;;4970787;28;20435;-73
2023/09/24 18:25:39;;;;;;;6.77;2.80;;;;;;;;;;4969189;28;20858;-73
2023/09/24 18:28:05;;;;;;;9.83;3.90;;;;;;;;;;4969830;28;20467;-72
2023/09/24 18:30:36;;;;;;;8.57;3.50;;;;;;;;;;4972439;28;20424;-72
2023/09/24 18:33:02;;;;;;;7.10;3.30;;;;;;;;;;4965035;28;20915;-71
2023/09/24 18:35:28;;;;;;;13.53;3.43;;;;;;;;;;4972171;28;20443;-71
2023/09/24 18:37:54;;;;;;;5.63;3.60;;;;;;;;;;4973947;28;20447;-71
2023/09/24 18:40:20;;;;;;;4.53;3.00;;;;;;;;;;4974572;28;20439;-72
2023/09/24 18:42:47;;;;;;;5.60;3.13;;;;;;;;;;4973967;28;20538;-72
2023/09/24 18:45:13;;;;;;;6.53;3.50;;;;;;;;;;4975228;28;20440;-71
2023/09/24 18:47:39;;;;;;;5.53;3.10;;;;;;;;;;4977478;28;20466;-72
2023/09/24 18:50:05;;;;;;;8.03;3.20;;;;;;;;;;4985070;28;20440;-71
2023/09/24 18:52:31;;;;;;;4.77;2.97;;;;;;;;;;4983726;28;20900;-72
2023/09/24 18:54:57;;;;;;;6.17;3.53;;;;;;;;;;4967569;28;20447;-72
2023/09/24 18:57:23;;;;;;;5.70;3.03;;;;;;;;;;4975131;28;20953;-71
2023/09/24 18:59:49;;;;;;;11.23;3.87;;;;;;;;;;4972310;28;20524;-72
2023/09/24 19:02:16;;;;;;;7.60;3.30;;;;;;;;;;4955926;28;20429;-70
2023/09/24 19:04:42;;;;;;;13.63;3.90;;;;;;;;;;4955408;28;20495;-70
2023/09/24 19:07:11;;;;;;;5.57;3.60;;;;;;;;;;4968088;28;20467;-70
2023/09/24 19:09:39;;;;;;;7.93;3.83;;;;;;;;;;4980043;28;20419;-70
2023/09/24 19:12:05;;;;;;;7.97;3.30;;;;;;;;;;4968686;28;20449;-70
2023/09/24 19:14:31;;;;;;;8.90;3.73;;;;;;;;;;4970741;28;20455;-71
2023/09/24 19:16:57;;;;;;;6.17;3.03;;;;;;;;;;4968082;28;20424;-70
2023/09/24 19:19:23;;;;;;;3.40;2.77;;;;;;;;;;4974888;28;20503;-70
2023/09/24 19:21:49;;;;;;;9.10;3.43;;;;;;;;;;4974598;28;20436;-72
2023/09/24 19:24:15;;;;;;;4.40;2.90;;;;;;;;;;4972938;28;20456;-71
2023/09/24 19:26:42;;;;;;;6.90;3.20;;;;;;;;;;4972616;28;20523;-71
2023/09/24 19:29:08;;;;;;;6.50;2.80;;;;;;;;;;4973639;28;20506;-71
2023/09/24 19:31:34;;;;;;;6.87;3.30;;;;;;;;;;4973597;28;20518;-71
2023/09/24 19:34:00;;;;;;;7.80;3.60;;;;;;;;;;4974120;28;20511;-71
2023/09/24 19:36:26;;;;;;;8.27;3.20;;;;;;;;;;4975795;28;20459;-71
2023/09/24 19:38:52;;;;;;;6.17;2.80;;;;;;;;;;4973958;28;20494;-72
2023/09/24 19:41:18;;;;;;;4.37;2.60;;;;;;;;;;4974757;28;20415;-71
2023/09/24 19:43:44;;;;;;;6.13;2.93;;;;;;;;;;4973760;28;20470;-72
2023/09/24 19:46:10;;;;;;;4.30;2.70;;;;;;;;;;4974358;28;20408;-72
2023/09/24 19:48:36;;;;;;;7.67;3.00;;;;;;;;;;4969309;28;20472;-73
2023/09/24 19:51:03;;;;;;;5.00;2.53;;;;;;;;;;4955590;28;20413;-73
2023/09/24 19:53:29;;;;;;;3.83;2.60;;;;;;;;;;4954929;29;20800;-73
2023/09/24 19:55:55;;;;;;;4.73;2.80;;;;;;;;;;4954502;29;20446;-71
2023/09/24 19:58:24;;;;;;;5.13;3.00;;;;;;;;;;4956813;28;20417;-71
2023/09/24 20:00:50;;;;;;;3.27;2.23;;;;;;;;;;4974288;28;20920;-71
2023/09/24 20:03:16;;;;;;;4.60;3.20;;;;;;;;;;4974115;28;20448;-71
2023/09/24 20:05:43;;;;;;;6.10;2.80;;;;;;;;;;4973961;28;20435;-73
2023/09/24 20:08:10;;;;;;;5.20;3.03;;;;;;;;;;4972794;28;20471;-74
2023/09/24 20:10:36;;;;;;;7.50;3.27;;;;;;;;;;4966844;28;20425;-74
2023/09/24 20:13:02;;;;;;;7.60;2.70;;;;;;;;;;4954863;29;20492;-73
2023/09/24 20:15:30;;;;;;;8.10;2.60;;;;;;;;;;4954173;29;20495;-73
2023/09/24 20:17:56;;;;;;;7.33;3.27;;;;;;;;;;4954656;28;20787;-73
2023/09/24 20:20:22;;;;;;;5.33;2.97;;;;;;;;;;4955105;28;20487;-73
2023/09/24 20:22:49;;;;;;;7.30;3.73;;;;;;;;;;4954631;28;20435;-71
2023/09/24 20:25:26;;;;;;;6.00;2.90;;;;;;;;;;4954402;29;20850;-73
2023/09/24 20:27:52;;;;;;;6.60;3.30;;;;;;;;;;4954722;29;20488;-74
2023/09/24 20:30:18;;;;;;;5.03;2.83;;;;;;;;;;4954623;29;20409;-71
2023/09/24 20:32:44;;;;;;;6.57;3.23;;;;;;;;;;4954377;29;20938;-71
2023/09/24 20:35:11;;;;;;;5.53;2.97;;;;;;;;;;4954463;28;20469;-71
2023/09/24 20:37:37;;;;;;;5.00;2.80;;;;;;;;;;4954813;28;20443;-71
2023/09/24 20:40:03;;;;;;;5.13;2.93;;;;;;;;;;4954605;29;20408;-72
2023/09/24 20:42:30;;;;;;;4.23;2.80;;;;;;;;;;4954278;29;20413;-71
2023/09/24 20:44:56;;;;;;;6.30;3.70;;;;;;;;;;4956624;28;20456;-72
2023/09/24 20:47:24;;;;;;;6.43;3.57;;;;;;;;;;4966010;28;20464;-72
2023/09/24 20:49:50;;;;;;;9.30;3.30;;;;;;;;;;4954302;29;20417;-71